sensor_id;sensor_type;location;lat;lon;timestamp;temperature;humidity
30234;DHT22;17046;52.074;4.748;2022-10-30T00:00:16;13.90;99.90
30234;DHT22;17046;52.074;4.748;2022-10-30T00:02:42;13.90;99.90
30234;DHT22;17046;52.074;4.748;2022-10-30T00:05:08;13.80;99.90
30234;DHT22;17046;52.074;4.748;2022-10-30T00:07:33;13.70;99.90
30234;DHT22;17046;52.074;4.748;2022-10-30T00:09:59;13.70;99.90
30234;DHT22;17046;52.074;4.748;2022-10-30T00:12:25;13.60;99.90
30234;DHT22;17046;52.074;4.748;2022-10-30T00:14:50;13.60;99.90
30234;DHT22;17046;52.074;4.748;2022-10-30T00:17:16;13.50;99.90
30234;DHT22;17046;52.074;4.748;2022-10-30T00:19:41;13.60;99.90
30234;DHT22;17046;52.074;4.748;2022-10-30T00:22:07;13.60;99.90
30234;DHT22;17046;52.074;4.748;2022-10-30T00:24:33;13.60;99.90
30234;DHT22;17046;52.074;4.748;2022-10-30T00:26:58;13.50;99.90
30234;DHT22;17046;52.074;4.748;2022-10-30T00:29:24;13.50;99.90
30234;DHT22;17046;52.074;4.748;2022-10-30T00:31:51;13.50;99.90
30234;DHT22;17046;52.074;4.748;2022-10-30T00:34:16;13.50;99.90
30234;DHT22;17046;52.074;4.748;2022-10-30T00:36:42;13.50;99.90
30234;DHT22;17046;52.074;4.748;2022-10-30T00:39:07;13.50;99.90
30234;DHT22;17046;52.074;4.748;2022-10-30T00:41:33;13.50;99.90
30234;DHT22;17046;52.074;4.748;2022-10-30T00:43:59;13.40;99.90
30234;DHT22;17046;52.074;4.748;2022-10-30T00:46:37;13.40;99.90
30234;DHT22;17046;52.074;4.748;2022-10-30T00:49:12;13.50;99.90
30234;DHT22;17046;52.074;4.748;2022-10-30T00:51:41;13.40;99.90
30234;DHT22;17046;52.074;4.748;2022-10-30T00:54:07;13.40;99.90
30234;DHT22;17046;52.074;4.748;2022-10-30T00:56:34;13.40;99.90
30234;DHT22;17046;52.074;4.748;2022-10-30T00:59:14;13.30;99.90
30234;DHT22;17046;52.074;4.748;2022-10-30T01:01:42;13.30;99.90
30234;DHT22;17046;52.074;4.748;2022-10-30T01:04:10;13.40;99.90
30234;DHT22;17046;52.074;4.748;2022-10-30T01:06:39;13.30;99.90
30234;DHT22;17046;52.074;4.748;2022-10-30T01:09:06;13.30;99.90
30234;DHT22;17046;52.074;4.748;2022-10-30T01:11:31;13.40;99.90
30234;DHT22;17046;52.074;4.748;2022-10-30T01:14:00;13.30;99.90
30234;DHT22;17046;52.074;4.748;2022-10-30T01:19:43;13.30;99.90
30234;DHT22;17046;52.074;4.748;2022-10-30T01:25:28;13.30;99.90
30234;DHT22;17046;52.074;4.748;2022-10-30T01:36:46;13.70;99.90
30234;DHT22;17046;52.074;4.748;2022-10-30T01:39:19;13.80;99.90
30234;DHT22;17046;52.074;4.748;2022-10-30T01:41:45;13.80;99.90
30234;DHT22;17046;52.074;4.748;2022-10-30T01:44:24;13.80;99.90
30234;DHT22;17046;52.074;4.748;2022-10-30T01:53:02;13.70;99.90
30234;DHT22;17046;52.074;4.748;2022-10-30T01:58:42;13.60;99.90
30234;DHT22;17046;52.074;4.748;2022-10-30T02:01:09;13.60;99.90
30234;DHT22;17046;52.074;4.748;2022-10-30T02:03:35;13.50;99.90
30234;DHT22;17046;52.074;4.748;2022-10-30T02:06:01;13.40;99.90
30234;DHT22;17046;52.074;4.748;2022-10-30T02:08:26;13.40;99.90
30234;DHT22;17046;52.074;4.748;2022-10-30T02:10:53;13.40;99.90
30234;DHT22;17046;52.074;4.748;2022-10-30T02:13:19;13.30;99.90
30234;DHT22;17046;52.074;4.748;2022-10-30T02:15:46;13.30;99.90
30234;DHT22;17046;52.074;4.748;2022-10-30T02:18:11;13.40;99.90
30234;DHT22;17046;52.074;4.748;2022-10-30T02:20:37;13.30;99.90
30234;DHT22;17046;52.074;4.748;2022-10-30T02:23:03;13.30;99.90
30234;DHT22;17046;52.074;4.748;2022-10-30T02:25:29;13.30;99.90
30234;DHT22;17046;52.074;4.748;2022-10-30T02:27:54;13.30;99.90
30234;DHT22;17046;52.074;4.748;2022-10-30T02:30:20;13.30;99.90
30234;DHT22;17046;52.074;4.748;2022-10-30T02:32:46;13.20;99.90
30234;DHT22;17046;52.074;4.748;2022-10-30T02:35:11;13.20;99.90
30234;DHT22;17046;52.074;4.748;2022-10-30T02:37:37;13.20;99.90
30234;DHT22;17046;52.074;4.748;2022-10-30T02:40:04;13.20;99.90
30234;DHT22;17046;52.074;4.748;2022-10-30T02:42:32;13.20;99.90
30234;DHT22;17046;52.074;4.748;2022-10-30T02:44:58;13.20;99.90
30234;DHT22;17046;52.074;4.748;2022-10-30T02:47:24;13.20;99.90
30234;DHT22;17046;52.074;4.748;2022-10-30T02:49:49;13.30;99.90
30234;DHT22;17046;52.074;4.748;2022-10-30T02:52:15;13.20;99.90
30234;DHT22;17046;52.074;4.748;2022-10-30T02:54:40;13.20;99.90
30234;DHT22;17046;52.074;4.748;2022-10-30T02:57:06;13.10;99.90
30234;DHT22;17046;52.074;4.748;2022-10-30T02:59:31;13.10;99.90
30234;DHT22;17046;52.074;4.748;2022-10-30T03:01:57;13.00;99.90
30234;DHT22;17046;52.074;4.748;2022-10-30T03:04:22;13.00;99.90
30234;DHT22;17046;52.074;4.748;2022-10-30T03:06:48;13.00;99.90
30234;DHT22;17046;52.074;4.748;2022-10-30T03:09:13;13.00;99.90
30234;DHT22;17046;52.074;4.748;2022-10-30T03:11:39;13.00;99.90
30234;DHT22;17046;52.074;4.748;2022-10-30T03:14:04;13.00;99.90
30234;DHT22;17046;52.074;4.748;2022-10-30T03:16:30;13.00;99.90
30234;DHT22;17046;52.074;4.748;2022-10-30T03:18:57;12.90;99.90
30234;DHT22;17046;52.074;4.748;2022-10-30T03:21:24;12.90;99.90
30234;DHT22;17046;52.074;4.748;2022-10-30T03:23:51;13.00;99.90
30234;DHT22;17046;52.074;4.748;2022-10-30T03:26:17;13.10;99.90
30234;DHT22;17046;52.074;4.748;2022-10-30T03:28:43;13.00;99.90
30234;DHT22;17046;52.074;4.748;2022-10-30T03:31:13;13.00;99.90
30234;DHT22;17046;52.074;4.748;2022-10-30T03:33:40;12.80;99.90
30234;DHT22;17046;52.074;4.748;2022-10-30T03:36:07;12.80;99.90
30234;DHT22;17046;52.074;4.748;2022-10-30T03:38:32;12.70;99.90
30234;DHT22;17046;52.074;4.748;2022-10-30T03:40:58;12.70;99.90
30234;DHT22;17046;52.074;4.748;2022-10-30T03:43:24;12.60;99.90
30234;DHT22;17046;52.074;4.748;2022-10-30T03:45:52;12.50;99.90
30234;DHT22;17046;52.074;4.748;2022-10-30T03:48:19;12.50;99.90
30234;DHT22;17046;52.074;4.748;2022-10-30T03:50:45;12.50;99.90
30234;DHT22;17046;52.074;4.748;2022-10-30T03:53:11;12.40;99.90
30234;DHT22;17046;52.074;4.748;2022-10-30T03:55:37;12.40;99.90
30234;DHT22;17046;52.074;4.748;2022-10-30T03:58:02;12.30;99.90
30234;DHT22;17046;52.074;4.748;2022-10-30T04:00:28;12.30;99.90
30234;DHT22;17046;52.074;4.748;2022-10-30T04:02:54;12.30;99.90
30234;DHT22;17046;52.074;4.748;2022-10-30T04:05:21;12.30;99.90
30234;DHT22;17046;52.074;4.748;2022-10-30T04:07:47;12.20;99.90
30234;DHT22;17046;52.074;4.748;2022-10-30T04:10:14;12.20;99.90
30234;DHT22;17046;52.074;4.748;2022-10-30T04:12:40;12.30;99.90
30234;DHT22;17046;52.074;4.748;2022-10-30T04:15:06;12.30;99.90
30234;DHT22;17046;52.074;4.748;2022-10-30T04:17:33;12.30;99.90
30234;DHT22;17046;52.074;4.748;2022-10-30T04:19:58;12.40;99.90
30234;DHT22;17046;52.074;4.748;2022-10-30T04:22:24;12.40;99.90
30234;DHT22;17046;52.074;4.748;2022-10-30T04:24:50;12.50;99.90
30234;DHT22;17046;52.074;4.748;2022-10-30T04:27:15;12.40;99.90
30234;DHT22;17046;52.074;4.748;2022-10-30T04:29:41;12.40;99.90
30234;DHT22;17046;52.074;4.748;2022-10-30T04:32:07;12.30;99.90
30234;DHT22;17046;52.074;4.748;2022-10-30T04:34:33;12.30;99.90
30234;DHT22;17046;52.074;4.748;2022-10-30T04:36:59;12.40;99.90
30234;DHT22;17046;52.074;4.748;2022-10-30T04:39:25;12.40;99.90
30234;DHT22;17046;52.074;4.748;2022-10-30T04:41:50;12.40;99.90
30234;DHT22;17046;52.074;4.748;2022-10-30T04:44:16;12.30;99.90
30234;DHT22;17046;52.074;4.748;2022-10-30T04:46:41;12.30;99.90
30234;DHT22;17046;52.074;4.748;2022-10-30T04:49:07;12.30;99.90
30234;DHT22;17046;52.074;4.748;2022-10-30T04:51:33;12.30;99.90
30234;DHT22;17046;52.074;4.748;2022-10-30T04:53:58;12.30;99.90
30234;DHT22;17046;52.074;4.748;2022-10-30T04:56:24;12.30;99.90
30234;DHT22;17046;52.074;4.748;2022-10-30T04:58:49;12.20;99.90
30234;DHT22;17046;52.074;4.748;2022-10-30T05:01:15;12.30;99.90
30234;DHT22;17046;52.074;4.748;2022-10-30T05:03:40;12.40;99.90
30234;DHT22;17046;52.074;4.748;2022-10-30T05:06:17;12.40;99.90
30234;DHT22;17046;52.074;4.748;2022-10-30T05:08:43;12.30;99.90
30234;DHT22;17046;52.074;4.748;2022-10-30T05:11:09;12.30;99.90
30234;DHT22;17046;52.074;4.748;2022-10-30T05:13:34;12.30;99.90
30234;DHT22;17046;52.074;4.748;2022-10-30T05:16:00;12.20;99.90
30234;DHT22;17046;52.074;4.748;2022-10-30T05:18:25;12.20;99.90
30234;DHT22;17046;52.074;4.748;2022-10-30T05:20:51;12.20;99.90
30234;DHT22;17046;52.074;4.748;2022-10-30T05:23:16;12.10;99.90
30234;DHT22;17046;52.074;4.748;2022-10-30T05:25:42;12.10;99.90
30234;DHT22;17046;52.074;4.748;2022-10-30T05:28:08;12.10;99.90
30234;DHT22;17046;52.074;4.748;2022-10-30T05:30:34;12.00;99.90
30234;DHT22;17046;52.074;4.748;2022-10-30T05:33:01;12.00;99.90
30234;DHT22;17046;52.074;4.748;2022-10-30T05:35:28;12.00;99.90
30234;DHT22;17046;52.074;4.748;2022-10-30T05:37:53;12.10;99.90
30234;DHT22;17046;52.074;4.748;2022-10-30T05:40:19;12.20;99.90
30234;DHT22;17046;52.074;4.748;2022-10-30T05:42:46;12.20;99.90
30234;DHT22;17046;52.074;4.748;2022-10-30T05:45:12;12.20;99.90
30234;DHT22;17046;52.074;4.748;2022-10-30T05:47:37;12.10;99.90
30234;DHT22;17046;52.074;4.748;2022-10-30T05:50:03;12.10;99.90
30234;DHT22;17046;52.074;4.748;2022-10-30T05:52:29;12.10;99.90
30234;DHT22;17046;52.074;4.748;2022-10-30T05:54:55;12.20;99.90
30234;DHT22;17046;52.074;4.748;2022-10-30T05:57:21;12.10;99.90
30234;DHT22;17046;52.074;4.748;2022-10-30T05:59:46;12.10;99.90
30234;DHT22;17046;52.074;4.748;2022-10-30T06:02:12;12.00;99.90
30234;DHT22;17046;52.074;4.748;2022-10-30T06:04:37;12.00;99.90
30234;DHT22;17046;52.074;4.748;2022-10-30T06:07:03;12.00;99.90
30234;DHT22;17046;52.074;4.748;2022-10-30T06:09:28;12.00;99.90
30234;DHT22;17046;52.074;4.748;2022-10-30T06:11:54;11.90;99.90
30234;DHT22;17046;52.074;4.748;2022-10-30T06:14:20;12.00;99.90
30234;DHT22;17046;52.074;4.748;2022-10-30T06:16:47;11.90;99.90
30234;DHT22;17046;52.074;4.748;2022-10-30T06:19:12;11.90;99.90
30234;DHT22;17046;52.074;4.748;2022-10-30T06:21:38;11.90;99.90
30234;DHT22;17046;52.074;4.748;2022-10-30T06:24:04;11.90;99.90
30234;DHT22;17046;52.074;4.748;2022-10-30T06:26:29;11.90;99.90
30234;DHT22;17046;52.074;4.748;2022-10-30T06:28:55;11.90;99.90
30234;DHT22;17046;52.074;4.748;2022-10-30T06:31:20;11.90;99.90
30234;DHT22;17046;52.074;4.748;2022-10-30T06:33:46;12.00;99.90
30234;DHT22;17046;52.074;4.748;2022-10-30T06:36:11;12.00;99.90
30234;DHT22;17046;52.074;4.748;2022-10-30T06:38:37;12.00;99.90
30234;DHT22;17046;52.074;4.748;2022-10-30T06:41:02;12.10;99.90
30234;DHT22;17046;52.074;4.748;2022-10-30T06:43:28;12.00;99.90
30234;DHT22;17046;52.074;4.748;2022-10-30T06:45:54;12.00;99.90
30234;DHT22;17046;52.074;4.748;2022-10-30T06:48:21;12.10;99.90
30234;DHT22;17046;52.074;4.748;2022-10-30T06:50:56;12.10;99.90
30234;DHT22;17046;52.074;4.748;2022-10-30T06:53:22;12.20;99.90
30234;DHT22;17046;52.074;4.748;2022-10-30T06:55:58;12.20;99.90
30234;DHT22;17046;52.074;4.748;2022-10-30T06:58:24;12.20;99.90
30234;DHT22;17046;52.074;4.748;2022-10-30T07:00:50;12.30;99.90
30234;DHT22;17046;52.074;4.748;2022-10-30T07:03:16;12.30;99.90
30234;DHT22;17046;52.074;4.748;2022-10-30T07:05:41;12.30;99.90
30234;DHT22;17046;52.074;4.748;2022-10-30T07:08:07;12.30;99.90
30234;DHT22;17046;52.074;4.748;2022-10-30T07:10:33;12.40;99.90
30234;DHT22;17046;52.074;4.748;2022-10-30T07:12:58;12.50;99.90
30234;DHT22;17046;52.074;4.748;2022-10-30T07:15:25;12.50;99.90
30234;DHT22;17046;52.074;4.748;2022-10-30T07:17:52;12.50;99.90
30234;DHT22;17046;52.074;4.748;2022-10-30T07:20:18;12.60;99.90
30234;DHT22;17046;52.074;4.748;2022-10-30T07:22:44;12.70;99.90
30234;DHT22;17046;52.074;4.748;2022-10-30T07:25:10;12.80;99.90
30234;DHT22;17046;52.074;4.748;2022-10-30T07:27:46;12.80;99.90
30234;DHT22;17046;52.074;4.748;2022-10-30T07:30:14;12.80;99.90
30234;DHT22;17046;52.074;4.748;2022-10-30T07:32:41;12.90;99.90
30234;DHT22;17046;52.074;4.748;2022-10-30T07:35:07;13.00;99.90
30234;DHT22;17046;52.074;4.748;2022-10-30T07:37:33;12.90;99.90
30234;DHT22;17046;52.074;4.748;2022-10-30T07:39:59;13.00;99.90
30234;DHT22;17046;52.074;4.748;2022-10-30T07:42:24;12.90;99.90
30234;DHT22;17046;52.074;4.748;2022-10-30T07:44:50;13.10;99.90
30234;DHT22;17046;52.074;4.748;2022-10-30T07:47:16;13.10;99.90
30234;DHT22;17046;52.074;4.748;2022-10-30T07:49:41;13.10;99.90
30234;DHT22;17046;52.074;4.748;2022-10-30T07:52:07;13.20;99.90
30234;DHT22;17046;52.074;4.748;2022-10-30T07:54:33;13.20;99.90
30234;DHT22;17046;52.074;4.748;2022-10-30T07:56:58;13.20;99.90
30234;DHT22;17046;52.074;4.748;2022-10-30T07:59:24;13.20;99.90
30234;DHT22;17046;52.074;4.748;2022-10-30T08:01:50;13.20;99.90
30234;DHT22;17046;52.074;4.748;2022-10-30T08:04:15;13.20;99.90
30234;DHT22;17046;52.074;4.748;2022-10-30T08:06:41;13.30;99.90
30234;DHT22;17046;52.074;4.748;2022-10-30T08:09:07;13.40;99.90
30234;DHT22;17046;52.074;4.748;2022-10-30T08:11:32;13.40;99.90
30234;DHT22;17046;52.074;4.748;2022-10-30T08:13:58;13.50;99.90
30234;DHT22;17046;52.074;4.748;2022-10-30T08:16:23;13.50;99.90
30234;DHT22;17046;52.074;4.748;2022-10-30T08:18:50;13.50;99.90
30234;DHT22;17046;52.074;4.748;2022-10-30T08:21:15;13.60;99.90
30234;DHT22;17046;52.074;4.748;2022-10-30T08:23:41;13.70;99.90
30234;DHT22;17046;52.074;4.748;2022-10-30T08:26:06;13.70;99.90
30234;DHT22;17046;52.074;4.748;2022-10-30T08:28:32;13.90;99.90
30234;DHT22;17046;52.074;4.748;2022-10-30T08:30:58;14.00;99.90
30234;DHT22;17046;52.074;4.748;2022-10-30T08:33:24;14.00;99.90
30234;DHT22;17046;52.074;4.748;2022-10-30T08:35:51;14.10;99.90
30234;DHT22;17046;52.074;4.748;2022-10-30T08:38:17;14.20;99.90
30234;DHT22;17046;52.074;4.748;2022-10-30T08:40:44;14.30;99.90
30234;DHT22;17046;52.074;4.748;2022-10-30T08:43:09;14.60;99.90
30234;DHT22;17046;52.074;4.748;2022-10-30T08:45:35;14.80;99.90
30234;DHT22;17046;52.074;4.748;2022-10-30T08:48:02;14.90;99.90
30234;DHT22;17046;52.074;4.748;2022-10-30T08:50:30;15.10;99.90
30234;DHT22;17046;52.074;4.748;2022-10-30T08:52:58;15.40;99.90
30234;DHT22;17046;52.074;4.748;2022-10-30T08:55:24;15.50;99.90
30234;DHT22;17046;52.074;4.748;2022-10-30T08:57:49;15.70;99.90
30234;DHT22;17046;52.074;4.748;2022-10-30T09:00:15;15.90;99.90
30234;DHT22;17046;52.074;4.748;2022-10-30T09:02:41;16.10;99.90
30234;DHT22;17046;52.074;4.748;2022-10-30T09:05:07;16.20;99.90
30234;DHT22;17046;52.074;4.748;2022-10-30T09:07:33;16.40;99.90
30234;DHT22;17046;52.074;4.748;2022-10-30T09:09:59;16.50;99.90
30234;DHT22;17046;52.074;4.748;2022-10-30T09:12:24;16.60;99.90
30234;DHT22;17046;52.074;4.748;2022-10-30T09:14:50;16.70;99.90
30234;DHT22;17046;52.074;4.748;2022-10-30T09:17:15;16.80;99.90
30234;DHT22;17046;52.074;4.748;2022-10-30T09:19:41;16.90;99.90
30234;DHT22;17046;52.074;4.748;2022-10-30T09:22:07;16.90;99.90
30234;DHT22;17046;52.074;4.748;2022-10-30T09:24:32;16.90;99.90
30234;DHT22;17046;52.074;4.748;2022-10-30T09:26:58;16.90;99.90
30234;DHT22;17046;52.074;4.748;2022-10-30T09:29:23;16.90;99.90
30234;DHT22;17046;52.074;4.748;2022-10-30T09:31:49;17.00;99.90
30234;DHT22;17046;52.074;4.748;2022-10-30T09:34:14;17.00;99.90
30234;DHT22;17046;52.074;4.748;2022-10-30T09:36:40;17.10;99.90
30234;DHT22;17046;52.074;4.748;2022-10-30T09:39:08;17.10;99.90
30234;DHT22;17046;52.074;4.748;2022-10-30T09:44:10;17.20;99.90
30234;DHT22;17046;52.074;4.748;2022-10-30T09:49:42;17.30;99.90
30234;DHT22;17046;52.074;4.748;2022-10-30T10:00:07;17.50;99.90
30234;DHT22;17046;52.074;4.748;2022-10-30T10:05:41;17.70;99.90
30234;DHT22;17046;52.074;4.748;2022-10-30T10:08:13;17.70;99.90
30234;DHT22;17046;52.074;4.748;2022-10-30T10:11:02;17.80;99.90
30234;DHT22;17046;52.074;4.748;2022-10-30T10:13:34;18.00;99.90
30234;DHT22;17046;52.074;4.748;2022-10-30T10:16:24;18.00;99.90
30234;DHT22;17046;52.074;4.748;2022-10-30T10:18:57;18.00;99.90
30234;DHT22;17046;52.074;4.748;2022-10-30T10:21:26;17.90;99.90
30234;DHT22;17046;52.074;4.748;2022-10-30T10:23:54;17.90;99.90
30234;DHT22;17046;52.074;4.748;2022-10-30T10:26:46;18.00;99.90
30234;DHT22;17046;52.074;4.748;2022-10-30T10:29:24;18.00;99.90
30234;DHT22;17046;52.074;4.748;2022-10-30T10:32:07;18.10;99.90
30234;DHT22;17046;52.074;4.748;2022-10-30T10:40:39;18.40;99.90
30234;DHT22;17046;52.074;4.748;2022-10-30T10:45:47;18.50;96.30
30234;DHT22;17046;52.074;4.748;2022-10-30T10:51:05;18.50;95.30
30234;DHT22;17046;52.074;4.748;2022-10-30T10:53:42;18.50;95.20
30234;DHT22;17046;52.074;4.748;2022-10-30T10:56:09;18.50;74.80
30234;DHT22;17046;52.074;4.748;2022-10-30T10:58:50;18.50;82.10
30234;DHT22;17046;52.074;4.748;2022-10-30T11:01:21;18.50;86.40
30234;DHT22;17046;52.074;4.748;2022-10-30T11:06:32;18.60;57.10
30234;DHT22;17046;52.074;4.748;2022-10-30T11:09:18;18.70;63.10
30234;DHT22;17046;52.074;4.748;2022-10-30T11:11:45;18.80;51.00
30234;DHT22;17046;52.074;4.748;2022-10-30T11:14:23;18.80;35.60
30234;DHT22;17046;52.074;4.748;2022-10-30T11:19:19;19.00;9.20
30234;DHT22;17046;52.074;4.748;2022-10-30T11:21:48;19.00;1.00
30234;DHT22;17046;52.074;4.748;2022-10-30T11:24:34;19.10;1.00
30234;DHT22;17046;52.074;4.748;2022-10-30T11:30:00;19.40;1.00
30234;DHT22;17046;52.074;4.748;2022-10-30T11:32:31;19.40;1.00
30234;DHT22;17046;52.074;4.748;2022-10-30T11:37:37;19.50;1.00
30234;DHT22;17046;52.074;4.748;2022-10-30T11:40:21;19.50;1.00
30234;DHT22;17046;52.074;4.748;2022-10-30T11:43:03;19.50;1.00
30234;DHT22;17046;52.074;4.748;2022-10-30T11:45:36;19.60;1.00
30234;DHT22;17046;52.074;4.748;2022-10-30T11:48:19;19.60;1.00
30234;DHT22;17046;52.074;4.748;2022-10-30T11:50:47;19.80;1.00
30234;DHT22;17046;52.074;4.748;2022-10-30T11:53:22;19.80;1.00
30234;DHT22;17046;52.074;4.748;2022-10-30T11:55:49;19.90;1.00
30234;DHT22;17046;52.074;4.748;2022-10-30T12:01:05;19.80;1.00
30234;DHT22;17046;52.074;4.748;2022-10-30T12:03:37;19.80;1.00
30234;DHT22;17046;52.074;4.748;2022-10-30T12:06:29;19.90;1.00
30234;DHT22;17046;52.074;4.748;2022-10-30T12:08:58;19.80;1.00
30234;DHT22;17046;52.074;4.748;2022-10-30T12:11:30;19.80;1.00
30234;DHT22;17046;52.074;4.748;2022-10-30T12:13:57;19.80;1.00
30234;DHT22;17046;52.074;4.748;2022-10-30T12:16:23;19.90;1.00
30234;DHT22;17046;52.074;4.748;2022-10-30T12:19:06;20.00;1.00
30234;DHT22;17046;52.074;4.748;2022-10-30T12:21:43;20.00;1.00
30234;DHT22;17046;52.074;4.748;2022-10-30T12:24:29;19.90;1.00
30234;DHT22;17046;52.074;4.748;2022-10-30T12:26:59;20.00;1.00
30234;DHT22;17046;52.074;4.748;2022-10-30T12:29:38;20.20;1.00
30234;DHT22;17046;52.074;4.748;2022-10-30T12:32:10;20.10;1.00
30234;DHT22;17046;52.074;4.748;2022-10-30T12:34:45;20.10;1.00
30234;DHT22;17046;52.074;4.748;2022-10-30T12:37:21;20.10;1.00
30234;DHT22;17046;52.074;4.748;2022-10-30T12:42:21;20.00;1.00
30234;DHT22;17046;52.074;4.748;2022-10-30T12:44:54;19.90;1.00
30234;DHT22;17046;52.074;4.748;2022-10-30T12:50:22;19.90;1.00
30234;DHT22;17046;52.074;4.748;2022-10-30T12:52:50;20.00;1.00
30234;DHT22;17046;52.074;4.748;2022-10-30T12:55:30;20.10;1.00
30234;DHT22;17046;52.074;4.748;2022-10-30T12:58:20;20.30;1.00
30234;DHT22;17046;52.074;4.748;2022-10-30T13:01:00;20.10;1.00
30234;DHT22;17046;52.074;4.748;2022-10-30T13:06:15;19.80;1.00
30234;DHT22;17046;52.074;4.748;2022-10-30T13:09:01;19.90;1.00
30234;DHT22;17046;52.074;4.748;2022-10-30T13:14:43;20.10;1.00
30234;DHT22;17046;52.074;4.748;2022-10-30T13:17:11;20.20;1.00
30234;DHT22;17046;52.074;4.748;2022-10-30T13:19:39;20.10;1.00
30234;DHT22;17046;52.074;4.748;2022-10-30T13:22:14;20.10;1.00
30234;DHT22;17046;52.074;4.748;2022-10-30T13:24:59;20.00;1.00
30234;DHT22;17046;52.074;4.748;2022-10-30T13:28:26;20.00;1.00
30234;DHT22;17046;52.074;4.748;2022-10-30T13:30:31;19.90;4.70
30234;DHT22;17046;52.074;4.748;2022-10-30T13:33:13;19.90;13.10
30234;DHT22;17046;52.074;4.748;2022-10-30T13:35:46;19.90;23.80
30234;DHT22;17046;52.074;4.748;2022-10-30T13:38:34;19.80;27.50
30234;DHT22;17046;52.074;4.748;2022-10-30T13:41:30;19.80;29.80
30234;DHT22;17046;52.074;4.748;2022-10-30T13:44:21;19.90;21.70
30234;DHT22;17046;52.074;4.748;2022-10-30T13:50:16;20.10;1.00
30234;DHT22;17046;52.074;4.748;2022-10-30T13:52:50;20.00;1.00
30234;DHT22;17046;52.074;4.748;2022-10-30T13:55:47;20.00;1.00
30234;DHT22;17046;52.074;4.748;2022-10-30T13:58:28;20.00;20.30
30234;DHT22;17046;52.074;4.748;2022-10-30T14:03:41;19.90;76.40
30234;DHT22;17046;52.074;4.748;2022-10-30T14:11:29;20.00;33.40
30234;DHT22;17046;52.074;4.748;2022-10-30T14:13:56;19.70;43.70
30234;DHT22;17046;52.074;4.748;2022-10-30T14:21:53;19.40;1.00
30234;DHT22;17046;52.074;4.748;2022-10-30T14:24:26;19.40;5.50
30234;DHT22;17046;52.074;4.748;2022-10-30T14:32:40;19.00;36.30
30234;DHT22;17046;52.074;4.748;2022-10-30T14:39:48;18.70;14.00
30234;DHT22;17046;52.074;4.748;2022-10-30T14:58:39;18.20;99.90
30234;DHT22;17046;52.074;4.748;2022-10-30T15:06:19;17.90;99.90
30234;DHT22;17046;52.074;4.748;2022-10-30T15:16:38;17.60;99.90
30234;DHT22;17046;52.074;4.748;2022-10-30T15:19:10;17.60;98.90
30234;DHT22;17046;52.074;4.748;2022-10-30T15:21:43;17.60;99.90
30234;DHT22;17046;52.074;4.748;2022-10-30T15:24:17;17.50;99.30
30234;DHT22;17046;52.074;4.748;2022-10-30T15:26:57;17.50;99.90
30234;DHT22;17046;52.074;4.748;2022-10-30T15:29:26;17.50;99.90
30234;DHT22;17046;52.074;4.748;2022-10-30T15:31:57;17.50;99.90
30234;DHT22;17046;52.074;4.748;2022-10-30T15:34:24;17.40;99.90
30234;DHT22;17046;52.074;4.748;2022-10-30T15:36:50;17.40;99.90
30234;DHT22;17046;52.074;4.748;2022-10-30T15:39:17;17.40;99.90
30234;DHT22;17046;52.074;4.748;2022-10-30T15:41:51;17.30;99.90
30234;DHT22;17046;52.074;4.748;2022-10-30T15:44:24;17.30;99.90
30234;DHT22;17046;52.074;4.748;2022-10-30T15:46:52;17.30;99.90
30234;DHT22;17046;52.074;4.748;2022-10-30T15:49:27;17.10;99.90
30234;DHT22;17046;52.074;4.748;2022-10-30T15:51:54;17.10;99.90
30234;DHT22;17046;52.074;4.748;2022-10-30T15:54:20;17.00;99.90
30234;DHT22;17046;52.074;4.748;2022-10-30T15:56:47;16.90;99.90
30234;DHT22;17046;52.074;4.748;2022-10-30T15:59:32;16.80;99.90
30234;DHT22;17046;52.074;4.748;2022-10-30T16:01:59;16.80;99.90
30234;DHT22;17046;52.074;4.748;2022-10-30T16:04:30;16.70;99.90
30234;DHT22;17046;52.074;4.748;2022-10-30T16:06:58;16.60;99.90
30234;DHT22;17046;52.074;4.748;2022-10-30T16:09:26;16.60;99.90
30234;DHT22;17046;52.074;4.748;2022-10-30T16:11:54;16.50;99.90
30234;DHT22;17046;52.074;4.748;2022-10-30T16:14:26;16.50;99.90
30234;DHT22;17046;52.074;4.748;2022-10-30T16:16:52;16.40;99.90
30234;DHT22;17046;52.074;4.748;2022-10-30T16:19:38;16.40;99.90
30234;DHT22;17046;52.074;4.748;2022-10-30T16:22:04;16.30;99.90
30234;DHT22;17046;52.074;4.748;2022-10-30T16:24:31;16.30;99.90
30234;DHT22;17046;52.074;4.748;2022-10-30T16:27:17;16.20;99.90
30234;DHT22;17046;52.074;4.748;2022-10-30T16:29:44;16.10;99.90
30234;DHT22;17046;52.074;4.748;2022-10-30T16:32:13;16.00;99.90
30234;DHT22;17046;52.074;4.748;2022-10-30T16:34:41;16.00;99.90
30234;DHT22;17046;52.074;4.748;2022-10-30T16:37:16;16.10;99.90
30234;DHT22;17046;52.074;4.748;2022-10-30T16:39:43;16.00;99.90
30234;DHT22;17046;52.074;4.748;2022-10-30T16:44:45;16.10;99.90
30234;DHT22;17046;52.074;4.748;2022-10-30T16:49:51;16.10;99.90
30234;DHT22;17046;52.074;4.748;2022-10-30T16:52:21;16.10;99.90
30234;DHT22;17046;52.074;4.748;2022-10-30T16:55:05;16.00;99.90
30234;DHT22;17046;52.074;4.748;2022-10-30T16:57:35;16.00;99.90
30234;DHT22;17046;52.074;4.748;2022-10-30T17:00:03;16.00;99.90
30234;DHT22;17046;52.074;4.748;2022-10-30T17:02:31;16.00;99.90
30234;DHT22;17046;52.074;4.748;2022-10-30T17:05:09;16.00;99.90
30234;DHT22;17046;52.074;4.748;2022-10-30T17:07:36;16.00;99.90
30234;DHT22;17046;52.074;4.748;2022-10-30T17:10:03;16.00;99.90
30234;DHT22;17046;52.074;4.748;2022-10-30T17:12:48;16.00;99.90
30234;DHT22;17046;52.074;4.748;2022-10-30T17:15:14;15.90;99.90
30234;DHT22;17046;52.074;4.748;2022-10-30T17:17:42;15.90;99.90
30234;DHT22;17046;52.074;4.748;2022-10-30T17:22:46;15.80;99.90
30234;DHT22;17046;52.074;4.748;2022-10-30T17:25:35;15.70;99.90
30234;DHT22;17046;52.074;4.748;2022-10-30T17:28:01;15.70;99.90
30234;DHT22;17046;52.074;4.748;2022-10-30T17:32:54;15.60;99.90
30234;DHT22;17046;52.074;4.748;2022-10-30T17:35:19;15.50;99.90
30234;DHT22;17046;52.074;4.748;2022-10-30T17:37:45;15.50;99.90
30234;DHT22;17046;52.074;4.748;2022-10-30T17:40:11;15.40;99.90
30234;DHT22;17046;52.074;4.748;2022-10-30T17:42:38;15.40;99.90
30234;DHT22;17046;52.074;4.748;2022-10-30T17:45:05;15.40;99.90
30234;DHT22;17046;52.074;4.748;2022-10-30T17:47:31;15.40;99.90
30234;DHT22;17046;52.074;4.748;2022-10-30T17:49:57;15.30;99.90
30234;DHT22;17046;52.074;4.748;2022-10-30T17:52:24;15.30;99.90
30234;DHT22;17046;52.074;4.748;2022-10-30T17:54:49;15.30;99.90
30234;DHT22;17046;52.074;4.748;2022-10-30T17:57:15;15.20;99.90
30234;DHT22;17046;52.074;4.748;2022-10-30T17:59:42;15.20;99.90
30234;DHT22;17046;52.074;4.748;2022-10-30T18:02:19;15.10;99.90
30234;DHT22;17046;52.074;4.748;2022-10-30T18:04:46;15.10;99.90
30234;DHT22;17046;52.074;4.748;2022-10-30T18:07:13;15.10;99.90